sensor_id;sensor_type;location;lat;lon;timestamp;temperature;humidity
530;DHT22;251;48.704;9.210;2023-07-20T00:02:25;19.00;18.50
530;DHT22;251;48.704;9.210;2023-07-20T00:04:52;18.90;19.70
530;DHT22;251;48.704;9.210;2023-07-20T00:07:19;18.70;19.50
530;DHT22;251;48.704;9.210;2023-07-20T00:09:46;18.60;19.70
530;DHT22;251;48.704;9.210;2023-07-20T00:12:13;18.50;20.30
530;DHT22;251;48.704;9.210;2023-07-20T00:14:41;18.40;20.50
530;DHT22;251;48.704;9.210;2023-07-20T00:17:08;18.30;21.30
530;DHT22;251;48.704;9.210;2023-07-20T00:19:35;18.20;21.20
530;DHT22;251;48.704;9.210;2023-07-20T00:22:03;18.10;22.20
530;DHT22;251;48.704;9.210;2023-07-20T00:24:30;18.00;23.30
530;DHT22;251;48.704;9.210;2023-07-20T00:26:58;17.90;22.00
530;DHT22;251;48.704;9.210;2023-07-20T00:29:26;17.80;23.30
530;DHT22;251;48.704;9.210;2023-07-20T00:31:54;17.80;23.30
530;DHT22;251;48.704;9.210;2023-07-20T00:34:23;17.70;23.30
530;DHT22;251;48.704;9.210;2023-07-20T00:36:49;17.70;23.30
530;DHT22;251;48.704;9.210;2023-07-20T00:39:16;17.60;25.50
530;DHT22;251;48.704;9.210;2023-07-20T00:41:43;17.40;24.10
530;DHT22;251;48.704;9.210;2023-07-20T00:44:10;17.30;24.70
530;DHT22;251;48.704;9.210;2023-07-20T00:46:37;17.20;24.60
530;DHT22;251;48.704;9.210;2023-07-20T00:49:07;17.20;24.60
530;DHT22;251;48.704;9.210;2023-07-20T00:51:34;17.10;25.80
530;DHT22;251;48.704;9.210;2023-07-20T00:54:01;16.90;24.90
530;DHT22;251;48.704;9.210;2023-07-20T00:56:29;16.90;24.80
530;DHT22;251;48.704;9.210;2023-07-20T00:58:56;16.80;25.00
530;DHT22;251;48.704;9.210;2023-07-20T01:01:23;16.70;26.30
530;DHT22;251;48.704;9.210;2023-07-20T01:03:50;16.60;28.80
530;DHT22;251;48.704;9.210;2023-07-20T01:06:26;16.60;27.80
530;DHT22;251;48.704;9.210;2023-07-20T01:09:09;16.50;28.50
530;DHT22;251;48.704;9.210;2023-07-20T01:11:41;16.40;29.20
530;DHT22;251;48.704;9.210;2023-07-20T01:14:10;16.30;28.60
530;DHT22;251;48.704;9.210;2023-07-20T01:16:38;16.20;28.80
530;DHT22;251;48.704;9.210;2023-07-20T01:19:04;16.10;29.40
530;DHT22;251;48.704;9.210;2023-07-20T01:21:39;16.00;29.80
530;DHT22;251;48.704;9.210;2023-07-20T01:24:37;16.00;31.00
530;DHT22;251;48.704;9.210;2023-07-20T01:27:28;15.90;32.30
530;DHT22;251;48.704;9.210;2023-07-20T01:30:30;15.80;32.40
530;DHT22;251;48.704;9.210;2023-07-20T01:33:03;15.70;32.20
530;DHT22;251;48.704;9.210;2023-07-20T01:35:32;15.70;34.00
530;DHT22;251;48.704;9.210;2023-07-20T01:37:59;15.60;34.50
530;DHT22;251;48.704;9.210;2023-07-20T01:40:27;15.60;36.00
530;DHT22;251;48.704;9.210;2023-07-20T01:42:54;15.50;34.50
530;DHT22;251;48.704;9.210;2023-07-20T01:45:20;15.50;34.90
530;DHT22;251;48.704;9.210;2023-07-20T01:47:47;15.40;36.30
530;DHT22;251;48.704;9.210;2023-07-20T01:50:15;15.30;36.50
530;DHT22;251;48.704;9.210;2023-07-20T01:52:42;15.30;36.80
530;DHT22;251;48.704;9.210;2023-07-20T01:55:09;15.20;37.40
530;DHT22;251;48.704;9.210;2023-07-20T01:57:36;15.20;39.00
530;DHT22;251;48.704;9.210;2023-07-20T02:00:04;15.10;39.40
530;DHT22;251;48.704;9.210;2023-07-20T02:02:41;15.10;40.40
530;DHT22;251;48.704;9.210;2023-07-20T02:05:08;15.10;40.40
530;DHT22;251;48.704;9.210;2023-07-20T02:07:36;15.00;41.60
530;DHT22;251;48.704;9.210;2023-07-20T02:10:03;15.00;39.60
530;DHT22;251;48.704;9.210;2023-07-20T02:12:30;14.90;39.50
530;DHT22;251;48.704;9.210;2023-07-20T02:14:57;14.90;40.50
530;DHT22;251;48.704;9.210;2023-07-20T02:17:24;14.90;41.00
530;DHT22;251;48.704;9.210;2023-07-20T02:19:52;14.90;42.00
530;DHT22;251;48.704;9.210;2023-07-20T02:22:19;14.80;42.30
530;DHT22;251;48.704;9.210;2023-07-20T02:24:47;14.70;43.70
530;DHT22;251;48.704;9.210;2023-07-20T02:27:15;14.70;43.70
530;DHT22;251;48.704;9.210;2023-07-20T02:29:42;14.70;43.70
530;DHT22;251;48.704;9.210;2023-07-20T02:32:10;14.60;44.80
530;DHT22;251;48.704;9.210;2023-07-20T02:34:37;14.60;44.70
530;DHT22;251;48.704;9.210;2023-07-20T02:37:04;14.50;45.00
530;DHT22;251;48.704;9.210;2023-07-20T02:39:31;14.50;45.70
530;DHT22;251;48.704;9.210;2023-07-20T02:42:00;14.40;46.20
530;DHT22;251;48.704;9.210;2023-07-20T02:44:28;14.40;45.30
530;DHT22;251;48.704;9.210;2023-07-20T02:46:55;14.30;47.70
530;DHT22;251;48.704;9.210;2023-07-20T02:49:22;14.30;48.10
530;DHT22;251;48.704;9.210;2023-07-20T02:51:49;14.20;48.60
530;DHT22;251;48.704;9.210;2023-07-20T02:54:15;14.20;47.80
530;DHT22;251;48.704;9.210;2023-07-20T02:56:42;14.10;47.40
530;DHT22;251;48.704;9.210;2023-07-20T02:59:11;14.10;49.10
530;DHT22;251;48.704;9.210;2023-07-20T03:01:38;14.10;49.70
530;DHT22;251;48.704;9.210;2023-07-20T03:04:05;14.10;48.30
530;DHT22;251;48.704;9.210;2023-07-20T03:06:33;14.00;49.10
530;DHT22;251;48.704;9.210;2023-07-20T03:09:02;14.00;48.80
530;DHT22;251;48.704;9.210;2023-07-20T03:11:29;14.00;49.40
530;DHT22;251;48.704;9.210;2023-07-20T03:13:57;13.90;49.80
530;DHT22;251;48.704;9.210;2023-07-20T03:16:25;13.90;52.20
530;DHT22;251;48.704;9.210;2023-07-20T03:18:53;13.90;53.30
530;DHT22;251;48.704;9.210;2023-07-20T03:21:20;13.80;52.30
530;DHT22;251;48.704;9.210;2023-07-20T03:23:46;13.90;54.70
530;DHT22;251;48.704;9.210;2023-07-20T03:26:13;13.80;51.60
530;DHT22;251;48.704;9.210;2023-07-20T03:28:41;13.80;52.30
530;DHT22;251;48.704;9.210;2023-07-20T03:31:09;13.80;54.40
530;DHT22;251;48.704;9.210;2023-07-20T03:33:40;13.70;53.80
530;DHT22;251;48.704;9.210;2023-07-20T03:36:07;13.70;53.60
530;DHT22;251;48.704;9.210;2023-07-20T03:38:35;13.70;53.60
530;DHT22;251;48.704;9.210;2023-07-20T03:41:02;13.70;54.50
530;DHT22;251;48.704;9.210;2023-07-20T03:43:29;13.70;54.00
530;DHT22;251;48.704;9.210;2023-07-20T03:45:56;13.60;53.30
530;DHT22;251;48.704;9.210;2023-07-20T03:48:24;13.60;54.00
530;DHT22;251;48.704;9.210;2023-07-20T03:50:53;13.60;54.40
530;DHT22;251;48.704;9.210;2023-07-20T03:53:20;13.60;53.50
530;DHT22;251;48.704;9.210;2023-07-20T03:55:49;13.60;54.80
530;DHT22;251;48.704;9.210;2023-07-20T03:58:16;13.60;55.90
530;DHT22;251;48.704;9.210;2023-07-20T04:00:44;13.60;54.80
530;DHT22;251;48.704;9.210;2023-07-20T04:03:12;13.60;55.70
530;DHT22;251;48.704;9.210;2023-07-20T04:05:39;13.60;55.30
530;DHT22;251;48.704;9.210;2023-07-20T04:08:07;13.60;54.50
530;DHT22;251;48.704;9.210;2023-07-20T04:10:34;13.60;56.20
530;DHT22;251;48.704;9.210;2023-07-20T04:13:01;13.60;54.60
530;DHT22;251;48.704;9.210;2023-07-20T04:15:28;13.60;55.60
530;DHT22;251;48.704;9.210;2023-07-20T04:17:55;13.70;55.30
530;DHT22;251;48.704;9.210;2023-07-20T04:20:22;13.80;54.70
530;DHT22;251;48.704;9.210;2023-07-20T04:22:49;13.90;53.20
530;DHT22;251;48.704;9.210;2023-07-20T04:25:17;14.00;51.10
530;DHT22;251;48.704;9.210;2023-07-20T04:27:45;14.00;50.00
530;DHT22;251;48.704;9.210;2023-07-20T04:30:12;14.10;50.00
530;DHT22;251;48.704;9.210;2023-07-20T04:32:39;14.20;50.20
530;DHT22;251;48.704;9.210;2023-07-20T04:35:18;14.30;51.80
530;DHT22;251;48.704;9.210;2023-07-20T04:37:46;14.40;51.00
530;DHT22;251;48.704;9.210;2023-07-20T04:40:18;14.50;48.60
530;DHT22;251;48.704;9.210;2023-07-20T04:42:45;14.70;48.60
530;DHT22;251;48.704;9.210;2023-07-20T04:45:12;14.80;46.90
530;DHT22;251;48.704;9.210;2023-07-20T04:47:39;14.90;47.20
530;DHT22;251;48.704;9.210;2023-07-20T04:50:06;15.00;47.50
530;DHT22;251;48.704;9.210;2023-07-20T04:52:33;15.10;48.90
530;DHT22;251;48.704;9.210;2023-07-20T04:55:00;15.20;48.40
530;DHT22;251;48.704;9.210;2023-07-20T04:57:28;15.30;47.30
530;DHT22;251;48.704;9.210;2023-07-20T04:59:55;15.40;46.10
530;DHT22;251;48.704;9.210;2023-07-20T05:02:22;15.60;46.60
530;DHT22;251;48.704;9.210;2023-07-20T05:04:49;15.80;38.30
530;DHT22;251;48.704;9.210;2023-07-20T05:07:16;16.00;37.40
530;DHT22;251;48.704;9.210;2023-07-20T05:09:43;16.20;35.80
530;DHT22;251;48.704;9.210;2023-07-20T05:12:09;16.30;32.10
530;DHT22;251;48.704;9.210;2023-07-20T05:14:39;16.40;38.70
530;DHT22;251;48.704;9.210;2023-07-20T05:17:07;16.60;32.30
530;DHT22;251;48.704;9.210;2023-07-20T05:19:34;16.70;29.00
530;DHT22;251;48.704;9.210;2023-07-20T05:22:01;16.80;29.20
530;DHT22;251;48.704;9.210;2023-07-20T05:24:28;16.90;27.70
530;DHT22;251;48.704;9.210;2023-07-20T05:26:54;17.00;28.20
530;DHT22;251;48.704;9.210;2023-07-20T05:29:21;17.10;26.50
530;DHT22;251;48.704;9.210;2023-07-20T05:31:49;17.20;25.90
530;DHT22;251;48.704;9.210;2023-07-20T05:34:16;17.30;25.30
530;DHT22;251;48.704;9.210;2023-07-20T05:36:43;17.40;25.10
530;DHT22;251;48.704;9.210;2023-07-20T05:39:10;17.50;26.30
530;DHT22;251;48.704;9.210;2023-07-20T05:41:37;17.60;24.40
530;DHT22;251;48.704;9.210;2023-07-20T05:44:03;17.70;24.10
530;DHT22;251;48.704;9.210;2023-07-20T05:46:30;17.80;24.60
530;DHT22;251;48.704;9.210;2023-07-20T05:48:58;18.00;24.40
530;DHT22;251;48.704;9.210;2023-07-20T05:51:25;18.00;24.10
530;DHT22;251;48.704;9.210;2023-07-20T05:53:52;18.20;23.50
530;DHT22;251;48.704;9.210;2023-07-20T05:56:19;18.20;22.30
530;DHT22;251;48.704;9.210;2023-07-20T05:58:46;18.40;23.80
530;DHT22;251;48.704;9.210;2023-07-20T06:01:13;18.50;20.50
530;DHT22;251;48.704;9.210;2023-07-20T06:03:39;18.50;21.20
530;DHT22;251;48.704;9.210;2023-07-20T06:06:07;18.60;18.90
530;DHT22;251;48.704;9.210;2023-07-20T06:08:37;18.70;19.50
530;DHT22;251;48.704;9.210;2023-07-20T06:11:04;18.80;18.80
530;DHT22;251;48.704;9.210;2023-07-20T06:13:31;18.90;21.00
530;DHT22;251;48.704;9.210;2023-07-20T06:15:57;19.00;19.70
530;DHT22;251;48.704;9.210;2023-07-20T06:18:24;19.10;17.50
530;DHT22;251;48.704;9.210;2023-07-20T06:20:51;19.20;18.50
530;DHT22;251;48.704;9.210;2023-07-20T06:23:20;19.30;17.40
530;DHT22;251;48.704;9.210;2023-07-20T06:25:46;19.30;16.10
530;DHT22;251;48.704;9.210;2023-07-20T06:28:13;19.40;14.50
530;DHT22;251;48.704;9.210;2023-07-20T06:30:40;19.50;14.20
530;DHT22;251;48.704;9.210;2023-07-20T06:33:07;19.50;14.20
530;DHT22;251;48.704;9.210;2023-07-20T06:35:34;19.50;14.60
530;DHT22;251;48.704;9.210;2023-07-20T06:38:01;19.60;15.30
530;DHT22;251;48.704;9.210;2023-07-20T06:40:30;19.70;14.90
530;DHT22;251;48.704;9.210;2023-07-20T06:42:57;19.80;14.50
530;DHT22;251;48.704;9.210;2023-07-20T06:45:24;19.70;13.60
530;DHT22;251;48.704;9.210;2023-07-20T06:47:51;19.80;13.50
530;DHT22;251;48.704;9.210;2023-07-20T06:50:18;19.80;13.40
530;DHT22;251;48.704;9.210;2023-07-20T06:52:45;19.80;14.60
530;DHT22;251;48.704;9.210;2023-07-20T06:55:13;19.80;12.50
530;DHT22;251;48.704;9.210;2023-07-20T06:57:41;19.80;12.90
530;DHT22;251;48.704;9.210;2023-07-20T07:00:09;19.80;13.90
530;DHT22;251;48.704;9.210;2023-07-20T07:02:36;19.90;14.30
530;DHT22;251;48.704;9.210;2023-07-20T07:05:04;19.90;12.70
530;DHT22;251;48.704;9.210;2023-07-20T07:07:31;19.90;14.20
530;DHT22;251;48.704;9.210;2023-07-20T07:09:58;20.00;15.80
530;DHT22;251;48.704;9.210;2023-07-20T07:12:25;20.00;14.40
530;DHT22;251;48.704;9.210;2023-07-20T07:14:53;20.00;13.60
530;DHT22;251;48.704;9.210;2023-07-20T07:17:20;20.00;12.70
530;DHT22;251;48.704;9.210;2023-07-20T07:19:47;19.90;13.40
530;DHT22;251;48.704;9.210;2023-07-20T07:22:13;19.90;12.80
530;DHT22;251;48.704;9.210;2023-07-20T07:24:40;19.90;13.00
530;DHT22;251;48.704;9.210;2023-07-20T07:27:08;19.90;12.60
530;DHT22;251;48.704;9.210;2023-07-20T07:29:35;19.90;12.60
530;DHT22;251;48.704;9.210;2023-07-20T07:32:04;20.00;13.20
530;DHT22;251;48.704;9.210;2023-07-20T07:34:31;19.90;12.00
530;DHT22;251;48.704;9.210;2023-07-20T07:37:00;20.00;12.70
530;DHT22;251;48.704;9.210;2023-07-20T07:39:26;20.00;12.60
530;DHT22;251;48.704;9.210;2023-07-20T07:41:55;20.00;12.90
530;DHT22;251;48.704;9.210;2023-07-20T07:44:22;20.00;13.80
530;DHT22;251;48.704;9.210;2023-07-20T07:46:49;20.10;13.50
530;DHT22;251;48.704;9.210;2023-07-20T07:49:17;20.20;13.60
530;DHT22;251;48.704;9.210;2023-07-20T07:51:44;20.30;12.20
530;DHT22;251;48.704;9.210;2023-07-20T07:54:11;20.40;11.60
530;DHT22;251;48.704;9.210;2023-07-20T07:56:38;20.50;13.50
530;DHT22;251;48.704;9.210;2023-07-20T07:59:06;20.70;11.20
530;DHT22;251;48.704;9.210;2023-07-20T08:01:33;20.90;11.60
530;DHT22;251;48.704;9.210;2023-07-20T08:04:00;21.10;10.80
530;DHT22;251;48.704;9.210;2023-07-20T08:06:28;21.40;9.40
530;DHT22;251;48.704;9.210;2023-07-20T08:08:55;21.60;8.80
530;DHT22;251;48.704;9.210;2023-07-20T08:11:23;21.80;8.20
530;DHT22;251;48.704;9.210;2023-07-20T08:13:50;21.90;8.50
530;DHT22;251;48.704;9.210;2023-07-20T08:16:16;21.80;8.10
530;DHT22;251;48.704;9.210;2023-07-20T08:18:43;21.70;7.70
530;DHT22;251;48.704;9.210;2023-07-20T08:21:11;21.70;8.20
530;DHT22;251;48.704;9.210;2023-07-20T08:23:39;21.80;6.50
530;DHT22;251;48.704;9.210;2023-07-20T08:26:05;21.90;7.40
530;DHT22;251;48.704;9.210;2023-07-20T08:28:34;21.90;8.10
530;DHT22;251;48.704;9.210;2023-07-20T08:31:01;21.90;6.60
530;DHT22;251;48.704;9.210;2023-07-20T08:33:28;21.90;7.00
530;DHT22;251;48.704;9.210;2023-07-20T08:35:59;21.90;5.20
530;DHT22;251;48.704;9.210;2023-07-20T08:38:27;22.00;6.20
530;DHT22;251;48.704;9.210;2023-07-20T08:40:55;22.00;8.00
530;DHT22;251;48.704;9.210;2023-07-20T08:43:23;22.00;6.20
530;DHT22;251;48.704;9.210;2023-07-20T08:45:52;22.00;6.10
530;DHT22;251;48.704;9.210;2023-07-20T08:48:20;22.00;6.70
530;DHT22;251;48.704;9.210;2023-07-20T08:50:49;22.10;6.60
530;DHT22;251;48.704;9.210;2023-07-20T08:53:17;22.40;5.80
530;DHT22;251;48.704;9.210;2023-07-20T08:55:45;22.60;4.10
530;DHT22;251;48.704;9.210;2023-07-20T08:58:15;22.70;4.70
530;DHT22;251;48.704;9.210;2023-07-20T09:00:42;22.70;3.20
530;DHT22;251;48.704;9.210;2023-07-20T09:03:10;22.60;3.20
530;DHT22;251;48.704;9.210;2023-07-20T09:05:37;22.50;3.60
530;DHT22;251;48.704;9.210;2023-07-20T09:08:06;22.40;4.20
530;DHT22;251;48.704;9.210;2023-07-20T09:10:33;22.20;5.40
530;DHT22;251;48.704;9.210;2023-07-20T09:13:00;22.20;6.30
530;DHT22;251;48.704;9.210;2023-07-20T09:15:29;22.30;5.20
530;DHT22;251;48.704;9.210;2023-07-20T09:17:56;22.50;4.70
530;DHT22;251;48.704;9.210;2023-07-20T09:20:22;22.60;3.30
530;DHT22;251;48.704;9.210;2023-07-20T09:22:50;22.70;2.00
530;DHT22;251;48.704;9.210;2023-07-20T09:25:18;22.80;3.50
530;DHT22;251;48.704;9.210;2023-07-20T09:27:46;22.80;3.90
530;DHT22;251;48.704;9.210;2023-07-20T09:30:14;22.70;5.40
530;DHT22;251;48.704;9.210;2023-07-20T09:32:44;22.60;3.50
530;DHT22;251;48.704;9.210;2023-07-20T09:35:14;22.50;3.80
530;DHT22;251;48.704;9.210;2023-07-20T09:37:46;22.60;4.70
530;DHT22;251;48.704;9.210;2023-07-20T09:40:17;22.90;3.20
530;DHT22;251;48.704;9.210;2023-07-20T09:42:44;23.20;2.50
530;DHT22;251;48.704;9.210;2023-07-20T09:45:11;23.40;1.40
530;DHT22;251;48.704;9.210;2023-07-20T09:47:38;23.40;1.00
530;DHT22;251;48.704;9.210;2023-07-20T09:50:08;23.40;1.30
530;DHT22;251;48.704;9.210;2023-07-20T09:52:38;23.40;2.90
530;DHT22;251;48.704;9.210;2023-07-20T09:55:07;23.30;1.90
530;DHT22;251;48.704;9.210;2023-07-20T09:57:35;23.30;3.00
530;DHT22;251;48.704;9.210;2023-07-20T10:00:03;23.30;2.00
530;DHT22;251;48.704;9.210;2023-07-20T10:02:37;23.30;2.90
530;DHT22;251;48.704;9.210;2023-07-20T10:05:10;23.30;2.20
530;DHT22;251;48.704;9.210;2023-07-20T10:07:43;23.20;3.10
530;DHT22;251;48.704;9.210;2023-07-20T10:10:10;23.20;1.80
530;DHT22;251;48.704;9.210;2023-07-20T10:12:39;23.30;2.30
530;DHT22;251;48.704;9.210;2023-07-20T10:15:11;23.40;2.40
530;DHT22;251;48.704;9.210;2023-07-20T10:17:43;23.60;2.90
530;DHT22;251;48.704;9.210;2023-07-20T10:20:17;23.70;1.00
530;DHT22;251;48.704;9.210;2023-07-20T10:22:47;23.80;1.00
530;DHT22;251;48.704;9.210;2023-07-20T10:25:15;23.90;1.00
530;DHT22;251;48.704;9.210;2023-07-20T10:27:43;24.10;1.00
530;DHT22;251;48.704;9.210;2023-07-20T10:30:10;24.40;1.00
530;DHT22;251;48.704;9.210;2023-07-20T10:32:38;24.60;1.00
530;DHT22;251;48.704;9.210;2023-07-20T10:35:13;24.60;1.00
530;DHT22;251;48.704;9.210;2023-07-20T10:37:52;24.70;1.00
530;DHT22;251;48.704;9.210;2023-07-20T10:40:29;24.70;1.00
530;DHT22;251;48.704;9.210;2023-07-20T10:42:58;24.60;1.00
530;DHT22;251;48.704;9.210;2023-07-20T10:45:36;24.40;1.00
530;DHT22;251;48.704;9.210;2023-07-20T10:48:03;24.20;1.00
530;DHT22;251;48.704;9.210;2023-07-20T10:50:32;24.00;1.00
530;DHT22;251;48.704;9.210;2023-07-20T10:53:12;23.90;1.00
530;DHT22;251;48.704;9.210;2023-07-20T10:55:39;24.00;1.00
530;DHT22;251;48.704;9.210;2023-07-20T10:58:10;24.20;1.00
530;DHT22;251;48.704;9.210;2023-07-20T11:00:38;24.50;1.00
530;DHT22;251;48.704;9.210;2023-07-20T11:03:29;24.80;1.00
530;DHT22;251;48.704;9.210;2023-07-20T11:05:58;25.00;1.00
530;DHT22;251;48.704;9.210;2023-07-20T11:08:42;25.40;1.00
530;DHT22;251;48.704;9.210;2023-07-20T11:11:22;25.40;1.00
530;DHT22;251;48.704;9.210;2023-07-20T11:13:57;25.20;1.00
530;DHT22;251;48.704;9.210;2023-07-20T11:16:39;25.20;1.00
530;DHT22;251;48.704;9.210;2023-07-20T11:19:14;25.40;1.00
530;DHT22;251;48.704;9.210;2023-07-20T11:21:42;25.60;1.00
530;DHT22;251;48.704;9.210;2023-07-20T11:24:11;25.50;1.00
530;DHT22;251;48.704;9.210;2023-07-20T11:26:46;25.50;1.00
530;DHT22;251;48.704;9.210;2023-07-20T11:29:13;25.40;1.00
530;DHT22;251;48.704;9.210;2023-07-20T11:31:42;25.20;1.00
530;DHT22;251;48.704;9.210;2023-07-20T11:34:10;25.30;1.00
530;DHT22;251;48.704;9.210;2023-07-20T11:36:39;25.50;1.00
530;DHT22;251;48.704;9.210;2023-07-20T11:39:07;25.80;1.00
530;DHT22;251;48.704;9.210;2023-07-20T11:41:36;26.20;1.00
530;DHT22;251;48.704;9.210;2023-07-20T11:44:04;26.70;1.00
530;DHT22;251;48.704;9.210;2023-07-20T11:46:33;26.90;1.00
530;DHT22;251;48.704;9.210;2023-07-20T11:49:00;26.90;1.00
530;DHT22;251;48.704;9.210;2023-07-20T11:51:28;26.90;1.00
530;DHT22;251;48.704;9.210;2023-07-20T11:53:55;26.50;1.00
530;DHT22;251;48.704;9.210;2023-07-20T11:56:24;26.30;1.00
530;DHT22;251;48.704;9.210;2023-07-20T11:58:55;26.20;1.00
530;DHT22;251;48.704;9.210;2023-07-20T12:01:23;26.20;1.00
530;DHT22;251;48.704;9.210;2023-07-20T12:03:50;26.60;1.00
530;DHT22;251;48.704;9.210;2023-07-20T12:06:17;27.10;1.00
530;DHT22;251;48.704;9.210;2023-07-20T12:08:44;27.20;1.00
530;DHT22;251;48.704;9.210;2023-07-20T12:11:11;26.90;1.00
530;DHT22;251;48.704;9.210;2023-07-20T12:13:40;26.50;1.00
530;DHT22;251;48.704;9.210;2023-07-20T12:16:14;26.20;1.00
530;DHT22;251;48.704;9.210;2023-07-20T12:18:42;26.40;1.00
530;DHT22;251;48.704;9.210;2023-07-20T12:21:09;26.70;1.00
530;DHT22;251;48.704;9.210;2023-07-20T12:23:37;27.10;1.00
530;DHT22;251;48.704;9.210;2023-07-20T12:26:06;27.40;1.00
530;DHT22;251;48.704;9.210;2023-07-20T12:28:38;27.90;1.00
530;DHT22;251;48.704;9.210;2023-07-20T12:31:06;28.10;1.00
530;DHT22;251;48.704;9.210;2023-07-20T12:33:34;28.30;1.00
530;DHT22;251;48.704;9.210;2023-07-20T12:36:01;28.60;1.00
530;DHT22;251;48.704;9.210;2023-07-20T12:38:28;28.80;1.00
530;DHT22;251;48.704;9.210;2023-07-20T12:40:56;28.50;1.00
530;DHT22;251;48.704;9.210;2023-07-20T12:43:24;28.80;1.00
530;DHT22;251;48.704;9.210;2023-07-20T12:45:51;28.70;1.00
530;DHT22;251;48.704;9.210;2023-07-20T12:48:18;28.10;1.00
530;DHT22;251;48.704;9.210;2023-07-20T12:50:46;28.40;1.00
530;DHT22;251;48.704;9.210;2023-07-20T12:53:13;28.80;1.00
530;DHT22;251;48.704;9.210;2023-07-20T12:55:40;29.10;1.00
530;DHT22;251;48.704;9.210;2023-07-20T12:58:07;29.20;1.00
530;DHT22;251;48.704;9.210;2023-07-20T13:00:34;29.60;1.00
530;DHT22;251;48.704;9.210;2023-07-20T13:03:01;29.80;1.00
530;DHT22;251;48.704;9.210;2023-07-20T13:05:30;30.20;1.00
530;DHT22;251;48.704;9.210;2023-07-20T13:07:59;30.70;1.00
530;DHT22;251;48.704;9.210;2023-07-20T13:10:26;31.10;1.00
530;DHT22;251;48.704;9.210;2023-07-20T13:12:53;31.50;1.00
530;DHT22;251;48.704;9.210;2023-07-20T13:15:20;31.80;1.00
530;DHT22;251;48.704;9.210;2023-07-20T13:17:47;32.20;1.00
530;DHT22;251;48.704;9.210;2023-07-20T13:20:14;32.50;1.00
530;DHT22;251;48.704;9.210;2023-07-20T13:22:41;32.50;1.00
530;DHT22;251;48.704;9.210;2023-07-20T13:25:09;32.30;1.00
530;DHT22;251;48.704;9.210;2023-07-20T13:27:36;32.40;1.00
530;DHT22;251;48.704;9.210;2023-07-20T13:30:04;32.60;1.00
530;DHT22;251;48.704;9.210;2023-07-20T13:32:32;32.90;1.00
530;DHT22;251;48.704;9.210;2023-07-20T13:34:59;33.10;1.00
530;DHT22;251;48.704;9.210;2023-07-20T13:37:26;33.50;1.00
530;DHT22;251;48.704;9.210;2023-07-20T13:39:52;33.30;1.00
530;DHT22;251;48.704;9.210;2023-07-20T13:42:20;33.20;1.00
530;DHT22;251;48.704;9.210;2023-07-20T13:44:47;32.30;1.00
530;DHT22;251;48.704;9.210;2023-07-20T13:47:14;31.90;1.00
530;DHT22;251;48.704;9.210;2023-07-20T13:49:41;31.20;1.00
530;DHT22;251;48.704;9.210;2023-07-20T13:52:08;31.00;1.00
530;DHT22;251;48.704;9.210;2023-07-20T13:54:35;30.70;1.00
530;DHT22;251;48.704;9.210;2023-07-20T13:57:02;30.90;1.00
530;DHT22;251;48.704;9.210;2023-07-20T13:59:30;30.90;1.00
530;DHT22;251;48.704;9.210;2023-07-20T14:01:57;31.20;1.00
530;DHT22;251;48.704;9.210;2023-07-20T14:04:24;31.60;1.00
530;DHT22;251;48.704;9.210;2023-07-20T14:06:51;32.10;1.00
530;DHT22;251;48.704;9.210;2023-07-20T14:09:17;32.90;1.00
530;DHT22;251;48.704;9.210;2023-07-20T14:11:44;33.30;1.00
530;DHT22;251;48.704;9.210;2023-07-20T14:14:11;33.60;1.00
530;DHT22;251;48.704;9.210;2023-07-20T14:16:40;33.80;1.00
530;DHT22;251;48.704;9.210;2023-07-20T14:19:07;33.40;1.00
530;DHT22;251;48.704;9.210;2023-07-20T14:21:33;33.80;1.00
530;DHT22;251;48.704;9.210;2023-07-20T14:24:00;34.30;1.00
530;DHT22;251;48.704;9.210;2023-07-20T14:26:27;34.20;1.00
530;DHT22;251;48.704;9.210;2023-07-20T14:28:54;34.40;1.00
530;DHT22;251;48.704;9.210;2023-07-20T14:31:21;34.40;1.00
530;DHT22;251;48.704;9.210;2023-07-20T14:33:49;34.60;1.00
530;DHT22;251;48.704;9.210;2023-07-20T14:36:16;34.70;1.00
530;DHT22;251;48.704;9.210;2023-07-20T14:38:43;34.70;1.00
530;DHT22;251;48.704;9.210;2023-07-20T14:41:09;34.70;1.00
530;DHT22;251;48.704;9.210;2023-07-20T14:43:37;34.80;1.00
530;DHT22;251;48.704;9.210;2023-07-20T14:46:05;34.70;1.00
530;DHT22;251;48.704;9.210;2023-07-20T14:48:32;34.50;1.00
530;DHT22;251;48.704;9.210;2023-07-20T14:51:00;34.00;1.00
530;DHT22;251;48.704;9.210;2023-07-20T14:53:27;33.80;1.00
530;DHT22;251;48.704;9.210;2023-07-20T14:55:58;33.90;1.00
530;DHT22;251;48.704;9.210;2023-07-20T14:58:26;33.50;1.00
530;DHT22;251;48.704;9.210;2023-07-20T15:00:53;33.30;1.00
530;DHT22;251;48.704;9.210;2023-07-20T15:03:19;33.20;1.00
530;DHT22;251;48.704;9.210;2023-07-20T15:05:46;33.20;1.00
530;DHT22;251;48.704;9.210;2023-07-20T15:08:14;32.90;1.00
530;DHT22;251;48.704;9.210;2023-07-20T15:10:41;32.70;1.00
530;DHT22;251;48.704;9.210;2023-07-20T15:13:11;32.40;1.00
530;DHT22;251;48.704;9.210;2023-07-20T15:15:38;32.10;1.00
530;DHT22;251;48.704;9.210;2023-07-20T15:18:05;32.00;1.00
530;DHT22;251;48.704;9.210;2023-07-20T15:20:31;31.90;1.00
530;DHT22;251;48.704;9.210;2023-07-20T15:22:58;31.80;1.00
530;DHT22;251;48.704;9.210;2023-07-20T15:25:27;32.10;1.00
530;DHT22;251;48.704;9.210;2023-07-20T15:27:54;32.70;1.00
530;DHT22;251;48.704;9.210;2023-07-20T15:30:21;33.10;1.00
530;DHT22;251;48.704;9.210;2023-07-20T15:32:48;32.90;1.00
530;DHT22;251;48.704;9.210;2023-07-20T15:35:15;33.20;1.00
530;DHT22;251;48.704;9.210;2023-07-20T15:37:41;33.50;1.00
530;DHT22;251;48.704;9.210;2023-07-20T15:40:10;34.00;1.00
530;DHT22;251;48.704;9.210;2023-07-20T15:42:38;34.20;1.00
530;DHT22;251;48.704;9.210;2023-07-20T15:45:06;34.60;1.00
530;DHT22;251;48.704;9.210;2023-07-20T15:47:33;35.00;1.00
530;DHT22;251;48.704;9.210;2023-07-20T15:50:00;34.90;1.00
530;DHT22;251;48.704;9.210;2023-07-20T15:52:27;35.20;1.00
530;DHT22;251;48.704;9.210;2023-07-20T15:54:54;35.50;1.00
530;DHT22;251;48.704;9.210;2023-07-20T15:57:21;35.90;1.00
530;DHT22;251;48.704;9.210;2023-07-20T15:59:50;36.30;1.00
530;DHT22;251;48.704;9.210;2023-07-20T16:02:16;36.50;1.00
530;DHT22;251;48.704;9.210;2023-07-20T16:04:43;36.50;1.00
530;DHT22;251;48.704;9.210;2023-07-20T16:07:11;36.50;1.00
530;DHT22;251;48.704;9.210;2023-07-20T16:09:38;36.40;1.00
530;DHT22;251;48.704;9.210;2023-07-20T16:12:07;36.50;1.00
530;DHT22;251;48.704;9.210;2023-07-20T16:14:34;36.10;1.00
530;DHT22;251;48.704;9.210;2023-07-20T16:17:02;35.60;1.00
530;DHT22;251;48.704;9.210;2023-07-20T16:19:29;35.10;1.00
530;DHT22;251;48.704;9.210;2023-07-20T16:21:56;34.80;1.00
530;DHT22;251;48.704;9.210;2023-07-20T16:24:23;34.30;1.00
530;DHT22;251;48.704;9.210;2023-07-20T16:26:50;34.10;1.00
530;DHT22;251;48.704;9.210;2023-07-20T16:29:17;33.90;1.00
530;DHT22;251;48.704;9.210;2023-07-20T16:31:43;33.60;1.00
530;DHT22;251;48.704;9.210;2023-07-20T16:34:12;34.00;1.00
530;DHT22;251;48.704;9.210;2023-07-20T16:36:39;34.50;1.00
530;DHT22;251;48.704;9.210;2023-07-20T16:39:07;35.00;1.00
530;DHT22;251;48.704;9.210;2023-07-20T16:41:35;34.90;1.00
530;DHT22;251;48.704;9.210;2023-07-20T16:44:02;35.00;1.00
530;DHT22;251;48.704;9.210;2023-07-20T16:46:30;34.80;1.00
530;DHT22;251;48.704;9.210;2023-07-20T16:48:57;34.40;1.00
530;DHT22;251;48.704;9.210;2023-07-20T16:51:31;34.30;1.00